sensor_id;sensor_type;location;lat;lon;timestamp;temperature;humidity
22558;DHT22;11445;53.816;8.902;2022-09-09T00:01:49;14.80;99.90
22558;DHT22;11445;53.816;8.902;2022-09-09T00:04:26;14.80;99.90
22558;DHT22;11445;53.816;8.902;2022-09-09T00:07:01;14.80;99.90
22558;DHT22;11445;53.816;8.902;2022-09-09T00:09:33;14.70;99.90
22558;DHT22;11445;53.816;8.902;2022-09-09T00:12:11;14.70;99.90
22558;DHT22;11445;53.816;8.902;2022-09-09T00:14:47;14.70;99.90
22558;DHT22;11445;53.816;8.902;2022-09-09T00:17:26;14.70;99.90
22558;DHT22;11445;53.816;8.902;2022-09-09T00:20:01;14.70;99.90
22558;DHT22;11445;53.816;8.902;2022-09-09T00:22:30;14.70;99.90
22558;DHT22;11445;53.816;8.902;2022-09-09T00:25:05;14.60;99.90
22558;DHT22;11445;53.816;8.902;2022-09-09T00:27:40;14.60;99.90
22558;DHT22;11445;53.816;8.902;2022-09-09T00:30:16;14.50;99.90
22558;DHT22;11445;53.816;8.902;2022-09-09T00:32:46;14.50;99.90
22558;DHT22;11445;53.816;8.902;2022-09-09T00:35:17;14.50;99.90
22558;DHT22;11445;53.816;8.902;2022-09-09T00:37:48;14.40;99.90
22558;DHT22;11445;53.816;8.902;2022-09-09T00:40:23;14.40;99.90
22558;DHT22;11445;53.816;8.902;2022-09-09T00:43:00;14.40;99.90
22558;DHT22;11445;53.816;8.902;2022-09-09T00:45:50;14.40;99.90
22558;DHT22;11445;53.816;8.902;2022-09-09T00:48:22;14.40;99.90
22558;DHT22;11445;53.816;8.902;2022-09-09T00:50:57;14.30;99.90
22558;DHT22;11445;53.816;8.902;2022-09-09T00:53:34;14.30;99.90
22558;DHT22;11445;53.816;8.902;2022-09-09T00:56:11;14.30;99.90
22558;DHT22;11445;53.816;8.902;2022-09-09T00:58:42;14.30;99.90
22558;DHT22;11445;53.816;8.902;2022-09-09T01:01:12;14.20;99.90
22558;DHT22;11445;53.816;8.902;2022-09-09T01:03:45;14.20;99.90
22558;DHT22;11445;53.816;8.902;2022-09-09T01:06:21;14.20;99.90
22558;DHT22;11445;53.816;8.902;2022-09-09T01:09:08;14.20;99.90
22558;DHT22;11445;53.816;8.902;2022-09-09T01:11:55;14.20;99.90
22558;DHT22;11445;53.816;8.902;2022-09-09T01:14:38;14.20;99.90
22558;DHT22;11445;53.816;8.902;2022-09-09T01:17:13;14.20;99.90
22558;DHT22;11445;53.816;8.902;2022-09-09T01:19:55;14.20;99.90
22558;DHT22;11445;53.816;8.902;2022-09-09T01:22:32;14.20;99.90
22558;DHT22;11445;53.816;8.902;2022-09-09T01:25:21;14.10;99.90
22558;DHT22;11445;53.816;8.902;2022-09-09T01:27:54;14.10;99.90
22558;DHT22;11445;53.816;8.902;2022-09-09T01:30:23;14.10;99.90
22558;DHT22;11445;53.816;8.902;2022-09-09T01:32:53;14.10;99.90
22558;DHT22;11445;53.816;8.902;2022-09-09T01:35:29;14.10;99.90
22558;DHT22;11445;53.816;8.902;2022-09-09T01:37:58;14.00;99.90
22558;DHT22;11445;53.816;8.902;2022-09-09T01:40:26;14.00;99.90
22558;DHT22;11445;53.816;8.902;2022-09-09T01:42:55;14.00;99.90
22558;DHT22;11445;53.816;8.902;2022-09-09T01:45:24;14.00;99.90
22558;DHT22;11445;53.816;8.902;2022-09-09T01:47:52;14.00;99.90
22558;DHT22;11445;53.816;8.902;2022-09-09T01:50:20;14.00;99.90
22558;DHT22;11445;53.816;8.902;2022-09-09T01:52:51;14.00;99.90
22558;DHT22;11445;53.816;8.902;2022-09-09T01:55:25;14.00;99.90
22558;DHT22;11445;53.816;8.902;2022-09-09T01:58:05;14.00;99.90
22558;DHT22;11445;53.816;8.902;2022-09-09T02:00:43;14.00;99.90
22558;DHT22;11445;53.816;8.902;2022-09-09T02:03:20;14.00;99.90
22558;DHT22;11445;53.816;8.902;2022-09-09T02:05:54;14.00;99.90
22558;DHT22;11445;53.816;8.902;2022-09-09T02:08:26;14.00;99.90
22558;DHT22;11445;53.816;8.902;2022-09-09T02:10:59;14.00;99.90
22558;DHT22;11445;53.816;8.902;2022-09-09T02:13:31;14.00;99.90
22558;DHT22;11445;53.816;8.902;2022-09-09T02:16:04;14.00;99.90
22558;DHT22;11445;53.816;8.902;2022-09-09T02:18:36;14.00;99.90
22558;DHT22;11445;53.816;8.902;2022-09-09T02:21:05;14.00;99.90
22558;DHT22;11445;53.816;8.902;2022-09-09T02:23:34;14.00;99.90
22558;DHT22;11445;53.816;8.902;2022-09-09T02:26:03;14.00;99.90
22558;DHT22;11445;53.816;8.902;2022-09-09T02:28:33;13.90;99.90
22558;DHT22;11445;53.816;8.902;2022-09-09T02:31:01;13.90;99.90
22558;DHT22;11445;53.816;8.902;2022-09-09T02:33:32;13.90;99.90
22558;DHT22;11445;53.816;8.902;2022-09-09T02:36:02;13.90;99.90
22558;DHT22;11445;53.816;8.902;2022-09-09T02:38:36;13.90;99.90
22558;DHT22;11445;53.816;8.902;2022-09-09T02:41:05;13.90;99.90
22558;DHT22;11445;53.816;8.902;2022-09-09T02:43:34;13.90;99.90
22558;DHT22;11445;53.816;8.902;2022-09-09T02:46:08;13.90;99.90
22558;DHT22;11445;53.816;8.902;2022-09-09T02:48:47;13.90;99.90
22558;DHT22;11445;53.816;8.902;2022-09-09T02:51:23;13.90;99.90
22558;DHT22;11445;53.816;8.902;2022-09-09T02:53:57;13.90;99.90
22558;DHT22;11445;53.816;8.902;2022-09-09T02:56:31;13.90;99.90
22558;DHT22;11445;53.816;8.902;2022-09-09T02:59:03;13.90;99.90
22558;DHT22;11445;53.816;8.902;2022-09-09T03:01:30;13.90;99.90
22558;DHT22;11445;53.816;8.902;2022-09-09T03:03:57;13.90;99.90
22558;DHT22;11445;53.816;8.902;2022-09-09T03:06:25;13.90;99.90
22558;DHT22;11445;53.816;8.902;2022-09-09T03:08:52;13.90;99.90
22558;DHT22;11445;53.816;8.902;2022-09-09T03:11:19;13.80;99.90
22558;DHT22;11445;53.816;8.902;2022-09-09T03:13:46;13.80;99.90
22558;DHT22;11445;53.816;8.902;2022-09-09T03:16:15;13.80;99.90
22558;DHT22;11445;53.816;8.902;2022-09-09T03:18:43;13.80;99.90
22558;DHT22;11445;53.816;8.902;2022-09-09T03:21:11;13.70;99.90
22558;DHT22;11445;53.816;8.902;2022-09-09T03:23:39;13.70;99.90
22558;DHT22;11445;53.816;8.902;2022-09-09T03:26:06;13.70;99.90
22558;DHT22;11445;53.816;8.902;2022-09-09T03:28:33;13.70;99.90
22558;DHT22;11445;53.816;8.902;2022-09-09T03:31:01;13.70;99.90
22558;DHT22;11445;53.816;8.902;2022-09-09T03:33:30;13.70;99.90
22558;DHT22;11445;53.816;8.902;2022-09-09T03:35:57;13.70;99.90
22558;DHT22;11445;53.816;8.902;2022-09-09T03:38:24;13.60;99.90
22558;DHT22;11445;53.816;8.902;2022-09-09T03:40:52;13.60;99.90
22558;DHT22;11445;53.816;8.902;2022-09-09T03:43:21;13.60;99.90
22558;DHT22;11445;53.816;8.902;2022-09-09T03:45:48;13.60;99.90
22558;DHT22;11445;53.816;8.902;2022-09-09T03:48:16;13.60;99.90
22558;DHT22;11445;53.816;8.902;2022-09-09T03:50:49;13.50;99.90
22558;DHT22;11445;53.816;8.902;2022-09-09T03:53:18;13.50;99.90
22558;DHT22;11445;53.816;8.902;2022-09-09T03:55:46;13.50;99.90
22558;DHT22;11445;53.816;8.902;2022-09-09T03:58:13;13.50;99.90
22558;DHT22;11445;53.816;8.902;2022-09-09T04:00:41;13.50;99.90
22558;DHT22;11445;53.816;8.902;2022-09-09T04:03:10;13.50;99.90
22558;DHT22;11445;53.816;8.902;2022-09-09T04:05:39;13.50;99.90
22558;DHT22;11445;53.816;8.902;2022-09-09T04:08:09;13.40;99.90
22558;DHT22;11445;53.816;8.902;2022-09-09T04:10:37;13.40;99.90
22558;DHT22;11445;53.816;8.902;2022-09-09T04:13:04;13.40;99.90
22558;DHT22;11445;53.816;8.902;2022-09-09T04:15:31;13.40;99.90
22558;DHT22;11445;53.816;8.902;2022-09-09T04:17:58;13.40;99.90
22558;DHT22;11445;53.816;8.902;2022-09-09T04:20:26;13.40;99.90
22558;DHT22;11445;53.816;8.902;2022-09-09T04:22:53;13.40;99.90
22558;DHT22;11445;53.816;8.902;2022-09-09T04:25:21;13.40;99.90
22558;DHT22;11445;53.816;8.902;2022-09-09T04:27:53;13.40;99.90
22558;DHT22;11445;53.816;8.902;2022-09-09T04:30:20;13.40;99.90
22558;DHT22;11445;53.816;8.902;2022-09-09T04:32:47;13.40;99.90
22558;DHT22;11445;53.816;8.902;2022-09-09T04:35:14;13.40;99.90
22558;DHT22;11445;53.816;8.902;2022-09-09T04:37:41;13.50;99.90
22558;DHT22;11445;53.816;8.902;2022-09-09T04:40:09;13.40;99.90
22558;DHT22;11445;53.816;8.902;2022-09-09T04:42:37;13.50;99.90
22558;DHT22;11445;53.816;8.902;2022-09-09T04:45:06;13.50;99.90
22558;DHT22;11445;53.816;8.902;2022-09-09T04:47:33;13.50;99.90
22558;DHT22;11445;53.816;8.902;2022-09-09T04:50:01;13.50;99.90
22558;DHT22;11445;53.816;8.902;2022-09-09T04:52:28;13.50;99.90
22558;DHT22;11445;53.816;8.902;2022-09-09T04:54:55;13.50;99.90
22558;DHT22;11445;53.816;8.902;2022-09-09T04:57:22;13.50;99.90
22558;DHT22;11445;53.816;8.902;2022-09-09T04:59:51;13.50;99.90
22558;DHT22;11445;53.816;8.902;2022-09-09T05:02:18;13.50;99.90
22558;DHT22;11445;53.816;8.902;2022-09-09T05:04:45;13.50;99.90
22558;DHT22;11445;53.816;8.902;2022-09-09T05:07:12;13.50;99.90
22558;DHT22;11445;53.816;8.902;2022-09-09T05:09:40;13.50;99.90
22558;DHT22;11445;53.816;8.902;2022-09-09T05:12:07;13.50;99.90
22558;DHT22;11445;53.816;8.902;2022-09-09T05:14:34;13.50;99.90
22558;DHT22;11445;53.816;8.902;2022-09-09T05:17:03;13.50;99.90
22558;DHT22;11445;53.816;8.902;2022-09-09T05:19:30;13.50;99.90
22558;DHT22;11445;53.816;8.902;2022-09-09T05:21:57;13.50;99.90
22558;DHT22;11445;53.816;8.902;2022-09-09T05:24:24;13.60;99.90
22558;DHT22;11445;53.816;8.902;2022-09-09T05:26:51;13.60;99.90
22558;DHT22;11445;53.816;8.902;2022-09-09T05:29:18;13.60;99.90
22558;DHT22;11445;53.816;8.902;2022-09-09T05:31:45;13.60;99.90
22558;DHT22;11445;53.816;8.902;2022-09-09T05:34:14;13.70;99.90
22558;DHT22;11445;53.816;8.902;2022-09-09T05:36:41;13.70;99.90
22558;DHT22;11445;53.816;8.902;2022-09-09T05:39:08;13.70;99.90
22558;DHT22;11445;53.816;8.902;2022-09-09T05:41:35;13.60;99.90
22558;DHT22;11445;53.816;8.902;2022-09-09T05:44:02;13.70;99.90
22558;DHT22;11445;53.816;8.902;2022-09-09T05:46:29;13.70;99.90
22558;DHT22;11445;53.816;8.902;2022-09-09T05:48:56;13.80;99.90
22558;DHT22;11445;53.816;8.902;2022-09-09T05:51:26;14.00;99.90
22558;DHT22;11445;53.816;8.902;2022-09-09T05:53:55;14.20;99.90
22558;DHT22;11445;53.816;8.902;2022-09-09T05:56:25;14.20;99.90
22558;DHT22;11445;53.816;8.902;2022-09-09T05:58:52;14.20;99.90
22558;DHT22;11445;53.816;8.902;2022-09-09T06:01:22;14.20;99.90
22558;DHT22;11445;53.816;8.902;2022-09-09T06:03:50;14.20;99.90
22558;DHT22;11445;53.816;8.902;2022-09-09T06:06:18;14.10;99.90
22558;DHT22;11445;53.816;8.902;2022-09-09T06:08:50;14.10;99.90
22558;DHT22;11445;53.816;8.902;2022-09-09T06:11:20;14.20;99.90
22558;DHT22;11445;53.816;8.902;2022-09-09T06:13:48;14.30;99.90
22558;DHT22;11445;53.816;8.902;2022-09-09T06:16:18;14.30;99.90
22558;DHT22;11445;53.816;8.902;2022-09-09T06:18:46;14.30;99.90
22558;DHT22;11445;53.816;8.902;2022-09-09T06:21:16;14.40;99.90
22558;DHT22;11445;53.816;8.902;2022-09-09T06:23:43;14.40;99.90
22558;DHT22;11445;53.816;8.902;2022-09-09T06:26:13;14.50;99.90
22558;DHT22;11445;53.816;8.902;2022-09-09T06:28:41;14.50;99.90
22558;DHT22;11445;53.816;8.902;2022-09-09T06:31:11;14.60;99.90
22558;DHT22;11445;53.816;8.902;2022-09-09T06:33:39;14.60;99.90
22558;DHT22;11445;53.816;8.902;2022-09-09T06:36:10;14.70;99.90
22558;DHT22;11445;53.816;8.902;2022-09-09T06:38:38;14.70;99.90
22558;DHT22;11445;53.816;8.902;2022-09-09T06:41:05;14.70;99.90
22558;DHT22;11445;53.816;8.902;2022-09-09T06:43:33;14.70;99.90
22558;DHT22;11445;53.816;8.902;2022-09-09T06:46:03;14.70;99.90
22558;DHT22;11445;53.816;8.902;2022-09-09T06:48:30;14.70;99.90
22558;DHT22;11445;53.816;8.902;2022-09-09T06:51:02;15.00;99.90
22558;DHT22;11445;53.816;8.902;2022-09-09T06:53:30;15.00;99.90
22558;DHT22;11445;53.816;8.902;2022-09-09T06:55:59;15.00;99.90
22558;DHT22;11445;53.816;8.902;2022-09-09T06:58:26;14.90;99.90
22558;DHT22;11445;53.816;8.902;2022-09-09T07:01:03;14.90;99.90
22558;DHT22;11445;53.816;8.902;2022-09-09T07:03:30;14.80;99.90
22558;DHT22;11445;53.816;8.902;2022-09-09T07:05:58;14.80;99.90
22558;DHT22;11445;53.816;8.902;2022-09-09T07:08:25;14.80;99.90
22558;DHT22;11445;53.816;8.902;2022-09-09T07:10:52;14.80;99.90
22558;DHT22;11445;53.816;8.902;2022-09-09T07:13:20;14.80;99.90
22558;DHT22;11445;53.816;8.902;2022-09-09T07:15:50;14.80;99.90
22558;DHT22;11445;53.816;8.902;2022-09-09T07:18:18;14.90;99.90
22558;DHT22;11445;53.816;8.902;2022-09-09T07:20:53;14.90;99.90
22558;DHT22;11445;53.816;8.902;2022-09-09T07:23:20;14.90;99.90
22558;DHT22;11445;53.816;8.902;2022-09-09T07:25:47;14.90;99.90
22558;DHT22;11445;53.816;8.902;2022-09-09T07:28:15;14.80;99.90
22558;DHT22;11445;53.816;8.902;2022-09-09T07:30:42;14.80;99.90
22558;DHT22;11445;53.816;8.902;2022-09-09T07:33:09;14.90;99.90
22558;DHT22;11445;53.816;8.902;2022-09-09T07:35:38;15.00;99.90
22558;DHT22;11445;53.816;8.902;2022-09-09T07:38:05;15.10;99.90
22558;DHT22;11445;53.816;8.902;2022-09-09T07:40:32;15.10;99.90
22558;DHT22;11445;53.816;8.902;2022-09-09T07:43:00;15.20;99.90
22558;DHT22;11445;53.816;8.902;2022-09-09T07:45:27;15.20;99.90
22558;DHT22;11445;53.816;8.902;2022-09-09T07:47:54;15.30;99.90
22558;DHT22;11445;53.816;8.902;2022-09-09T07:50:22;15.40;99.90
22558;DHT22;11445;53.816;8.902;2022-09-09T07:52:51;15.50;99.90
22558;DHT22;11445;53.816;8.902;2022-09-09T07:55:19;15.60;99.90
22558;DHT22;11445;53.816;8.902;2022-09-09T07:57:46;15.60;99.90
22558;DHT22;11445;53.816;8.902;2022-09-09T08:00:14;15.70;99.90
22558;DHT22;11445;53.816;8.902;2022-09-09T08:02:41;15.80;99.90
22558;DHT22;11445;53.816;8.902;2022-09-09T08:05:08;15.90;99.90
22558;DHT22;11445;53.816;8.902;2022-09-09T08:07:35;15.90;99.90
22558;DHT22;11445;53.816;8.902;2022-09-09T08:10:04;16.00;99.90
22558;DHT22;11445;53.816;8.902;2022-09-09T08:12:32;16.10;99.90
22558;DHT22;11445;53.816;8.902;2022-09-09T08:14:59;16.20;99.90
22558;DHT22;11445;53.816;8.902;2022-09-09T08:17:26;16.20;99.90
22558;DHT22;11445;53.816;8.902;2022-09-09T08:19:53;16.30;99.90
22558;DHT22;11445;53.816;8.902;2022-09-09T08:22:20;16.30;99.90
22558;DHT22;11445;53.816;8.902;2022-09-09T08:24:47;16.30;99.90
22558;DHT22;11445;53.816;8.902;2022-09-09T08:27:16;16.30;99.90
22558;DHT22;11445;53.816;8.902;2022-09-09T08:29:43;16.30;99.90
22558;DHT22;11445;53.816;8.902;2022-09-09T08:32:10;16.40;99.90
22558;DHT22;11445;53.816;8.902;2022-09-09T08:34:37;16.40;99.90
22558;DHT22;11445;53.816;8.902;2022-09-09T08:37:04;16.40;99.90
22558;DHT22;11445;53.816;8.902;2022-09-09T08:39:31;16.40;99.90
22558;DHT22;11445;53.816;8.902;2022-09-09T08:42:27;16.40;99.90
22558;DHT22;11445;53.816;8.902;2022-09-09T08:45:17;16.40;99.90
22558;DHT22;11445;53.816;8.902;2022-09-09T08:47:54;16.40;99.90
22558;DHT22;11445;53.816;8.902;2022-09-09T08:50:26;16.40;99.90
22558;DHT22;11445;53.816;8.902;2022-09-09T08:53:01;16.50;99.90
22558;DHT22;11445;53.816;8.902;2022-09-09T08:55:37;16.60;99.90
22558;DHT22;11445;53.816;8.902;2022-09-09T08:58:12;16.70;99.90
22558;DHT22;11445;53.816;8.902;2022-09-09T09:00:46;16.70;99.90
22558;DHT22;11445;53.816;8.902;2022-09-09T09:03:24;16.80;99.90
22558;DHT22;11445;53.816;8.902;2022-09-09T09:06:01;16.80;99.90
22558;DHT22;11445;53.816;8.902;2022-09-09T09:08:38;16.90;99.90
22558;DHT22;11445;53.816;8.902;2022-09-09T09:11:07;17.00;99.90
22558;DHT22;11445;53.816;8.902;2022-09-09T09:13:39;17.10;99.90
22558;DHT22;11445;53.816;8.902;2022-09-09T09:16:16;17.30;99.90
22558;DHT22;11445;53.816;8.902;2022-09-09T09:18:45;17.40;99.90
22558;DHT22;11445;53.816;8.902;2022-09-09T09:21:15;17.60;99.90
22558;DHT22;11445;53.816;8.902;2022-09-09T09:23:51;17.80;99.90
22558;DHT22;11445;53.816;8.902;2022-09-09T09:26:22;17.80;99.90
22558;DHT22;11445;53.816;8.902;2022-09-09T09:28:54;17.80;99.90
22558;DHT22;11445;53.816;8.902;2022-09-09T09:31:23;17.80;99.90
22558;DHT22;11445;53.816;8.902;2022-09-09T09:33:53;17.90;99.90
22558;DHT22;11445;53.816;8.902;2022-09-09T09:36:21;18.00;99.90
22558;DHT22;11445;53.816;8.902;2022-09-09T09:38:55;18.10;99.90
22558;DHT22;11445;53.816;8.902;2022-09-09T09:41:34;18.10;99.90
22558;DHT22;11445;53.816;8.902;2022-09-09T09:44:03;18.00;99.90
22558;DHT22;11445;53.816;8.902;2022-09-09T09:46:30;18.10;99.90
22558;DHT22;11445;53.816;8.902;2022-09-09T09:48:59;18.20;99.90
22558;DHT22;11445;53.816;8.902;2022-09-09T09:51:27;18.20;99.90
22558;DHT22;11445;53.816;8.902;2022-09-09T09:54:08;18.20;99.90
22558;DHT22;11445;53.816;8.902;2022-09-09T09:56:36;18.20;99.90
22558;DHT22;11445;53.816;8.902;2022-09-09T09:59:05;18.20;99.90
22558;DHT22;11445;53.816;8.902;2022-09-09T10:01:33;18.20;99.90
22558;DHT22;11445;53.816;8.902;2022-09-09T10:04:02;18.30;99.90
22558;DHT22;11445;53.816;8.902;2022-09-09T10:06:32;18.20;99.90
22558;DHT22;11445;53.816;8.902;2022-09-09T10:09:00;18.20;99.90
22558;DHT22;11445;53.816;8.902;2022-09-09T10:11:38;18.10;99.90
22558;DHT22;11445;53.816;8.902;2022-09-09T10:14:18;18.10;99.90
22558;DHT22;11445;53.816;8.902;2022-09-09T10:17:09;18.10;99.90
22558;DHT22;11445;53.816;8.902;2022-09-09T10:19:42;18.10;99.90
22558;DHT22;11445;53.816;8.902;2022-09-09T10:22:26;18.10;99.90
22558;DHT22;11445;53.816;8.902;2022-09-09T10:28:18;18.30;99.90
22558;DHT22;11445;53.816;8.902;2022-09-09T10:31:00;18.40;99.90
22558;DHT22;11445;53.816;8.902;2022-09-09T10:33:37;18.50;99.90
22558;DHT22;11445;53.816;8.902;2022-09-09T10:36:12;18.60;99.90
22558;DHT22;11445;53.816;8.902;2022-09-09T10:38:41;18.70;99.90
22558;DHT22;11445;53.816;8.902;2022-09-09T10:41:32;18.80;99.90
22558;DHT22;11445;53.816;8.902;2022-09-09T10:44:27;19.00;99.90
22558;DHT22;11445;53.816;8.902;2022-09-09T10:47:11;19.10;99.90
22558;DHT22;11445;53.816;8.902;2022-09-09T10:50:07;19.10;99.90
22558;DHT22;11445;53.816;8.902;2022-09-09T10:52:44;19.20;99.90
22558;DHT22;11445;53.816;8.902;2022-09-09T10:55:17;19.40;99.90
22558;DHT22;11445;53.816;8.902;2022-09-09T10:57:46;19.50;99.90
22558;DHT22;11445;53.816;8.902;2022-09-09T11:00:17;19.60;99.90
22558;DHT22;11445;53.816;8.902;2022-09-09T11:02:49;19.70;99.90
22558;DHT22;11445;53.816;8.902;2022-09-09T11:05:20;19.70;99.90
22558;DHT22;11445;53.816;8.902;2022-09-09T11:07:51;19.80;99.90
22558;DHT22;11445;53.816;8.902;2022-09-09T11:10:24;19.90;99.90
22558;DHT22;11445;53.816;8.902;2022-09-09T11:12:56;19.90;99.90
22558;DHT22;11445;53.816;8.902;2022-09-09T11:15:31;19.90;99.90
22558;DHT22;11445;53.816;8.902;2022-09-09T11:18:04;20.10;99.90
22558;DHT22;11445;53.816;8.902;2022-09-09T11:20:31;20.20;99.90
22558;DHT22;11445;53.816;8.902;2022-09-09T11:23:01;20.30;99.90
22558;DHT22;11445;53.816;8.902;2022-09-09T11:25:31;20.40;99.90
22558;DHT22;11445;53.816;8.902;2022-09-09T11:28:16;20.40;99.90
22558;DHT22;11445;53.816;8.902;2022-09-09T11:31:00;20.50;99.90
22558;DHT22;11445;53.816;8.902;2022-09-09T11:33:52;20.70;99.90
22558;DHT22;11445;53.816;8.902;2022-09-09T11:36:38;20.70;99.90
22558;DHT22;11445;53.816;8.902;2022-09-09T11:39:25;20.70;99.90
22558;DHT22;11445;53.816;8.902;2022-09-09T11:42:05;20.80;99.90
22558;DHT22;11445;53.816;8.902;2022-09-09T11:44:33;20.80;99.90
22558;DHT22;11445;53.816;8.902;2022-09-09T11:47:00;20.90;99.90
22558;DHT22;11445;53.816;8.902;2022-09-09T11:49:39;20.90;99.90
22558;DHT22;11445;53.816;8.902;2022-09-09T11:52:11;20.80;99.90
22558;DHT22;11445;53.816;8.902;2022-09-09T11:54:47;20.80;99.90
22558;DHT22;11445;53.816;8.902;2022-09-09T11:57:25;20.70;99.90
22558;DHT22;11445;53.816;8.902;2022-09-09T11:59:54;20.70;99.90
22558;DHT22;11445;53.816;8.902;2022-09-09T12:02:24;20.70;99.90
22558;DHT22;11445;53.816;8.902;2022-09-09T12:05:00;20.70;99.90
22558;DHT22;11445;53.816;8.902;2022-09-09T12:07:34;20.70;99.90
22558;DHT22;11445;53.816;8.902;2022-09-09T12:10:04;20.80;99.90
22558;DHT22;11445;53.816;8.902;2022-09-09T12:12:35;20.80;99.90
22558;DHT22;11445;53.816;8.902;2022-09-09T12:15:22;20.90;99.90
22558;DHT22;11445;53.816;8.902;2022-09-09T12:17:52;20.90;99.90
22558;DHT22;11445;53.816;8.902;2022-09-09T12:20:23;20.90;99.90
22558;DHT22;11445;53.816;8.902;2022-09-09T12:23:10;20.80;99.90
22558;DHT22;11445;53.816;8.902;2022-09-09T12:25:57;20.80;99.90
22558;DHT22;11445;53.816;8.902;2022-09-09T12:28:32;20.80;99.90
22558;DHT22;11445;53.816;8.902;2022-09-09T12:31:06;20.80;99.90
22558;DHT22;11445;53.816;8.902;2022-09-09T12:33:40;20.80;99.90
22558;DHT22;11445;53.816;8.902;2022-09-09T12:36:14;20.80;99.90
22558;DHT22;11445;53.816;8.902;2022-09-09T12:38:43;20.90;99.90
22558;DHT22;11445;53.816;8.902;2022-09-09T12:41:19;20.90;99.90
22558;DHT22;11445;53.816;8.902;2022-09-09T12:43:47;21.00;99.90
22558;DHT22;11445;53.816;8.902;2022-09-09T12:46:22;21.20;99.90
22558;DHT22;11445;53.816;8.902;2022-09-09T12:48:53;21.20;99.90
22558;DHT22;11445;53.816;8.902;2022-09-09T12:51:25;21.20;99.90
22558;DHT22;11445;53.816;8.902;2022-09-09T12:53:53;21.10;99.90
22558;DHT22;11445;53.816;8.902;2022-09-09T12:56:22;21.10;99.90
22558;DHT22;11445;53.816;8.902;2022-09-09T12:58:53;21.20;99.90
22558;DHT22;11445;53.816;8.902;2022-09-09T13:01:22;21.20;99.90
22558;DHT22;11445;53.816;8.902;2022-09-09T13:03:49;21.20;99.90
22558;DHT22;11445;53.816;8.902;2022-09-09T13:06:22;21.10;99.90
22558;DHT22;11445;53.816;8.902;2022-09-09T13:08:50;21.00;99.90
22558;DHT22;11445;53.816;8.902;2022-09-09T13:11:20;20.90;99.90
22558;DHT22;11445;53.816;8.902;2022-09-09T13:13:51;20.80;99.90
22558;DHT22;11445;53.816;8.902;2022-09-09T13:16:21;20.70;99.90
22558;DHT22;11445;53.816;8.902;2022-09-09T13:18:50;20.60;99.90
22558;DHT22;11445;53.816;8.902;2022-09-09T13:21:18;20.50;99.90
22558;DHT22;11445;53.816;8.902;2022-09-09T13:23:50;20.40;99.90
22558;DHT22;11445;53.816;8.902;2022-09-09T13:26:23;20.40;99.90
22558;DHT22;11445;53.816;8.902;2022-09-09T13:28:51;20.30;99.90
22558;DHT22;11445;53.816;8.902;2022-09-09T13:31:23;20.30;99.90
22558;DHT22;11445;53.816;8.902;2022-09-09T13:33:53;20.20;99.90
22558;DHT22;11445;53.816;8.902;2022-09-09T13:36:29;20.20;99.90
22558;DHT22;11445;53.816;8.902;2022-09-09T13:38:59;20.10;99.90
22558;DHT22;11445;53.816;8.902;2022-09-09T13:41:31;20.00;99.90
22558;DHT22;11445;53.816;8.902;2022-09-09T13:44:00;19.80;99.90
22558;DHT22;11445;53.816;8.902;2022-09-09T13:46:33;19.70;99.90
22558;DHT22;11445;53.816;8.902;2022-09-09T13:49:03;19.70;99.90
22558;DHT22;11445;53.816;8.902;2022-09-09T13:51:46;19.60;99.90
22558;DHT22;11445;53.816;8.902;2022-09-09T13:54:17;19.60;99.90
22558;DHT22;11445;53.816;8.902;2022-09-09T13:56:45;19.60;99.90
22558;DHT22;11445;53.816;8.902;2022-09-09T13:59:13;19.60;99.90
22558;DHT22;11445;53.816;8.902;2022-09-09T14:01:41;19.50;99.90
22558;DHT22;11445;53.816;8.902;2022-09-09T14:04:08;19.50;99.90
22558;DHT22;11445;53.816;8.902;2022-09-09T14:06:36;19.50;99.90
22558;DHT22;11445;53.816;8.902;2022-09-09T14:09:05;19.50;99.90
22558;DHT22;11445;53.816;8.902;2022-09-09T14:11:34;19.50;99.90
22558;DHT22;11445;53.816;8.902;2022-09-09T14:14:01;19.50;99.90
22558;DHT22;11445;53.816;8.902;2022-09-09T14:16:28;19.50;99.90
22558;DHT22;11445;53.816;8.902;2022-09-09T14:18:55;19.40;99.90
22558;DHT22;11445;53.816;8.902;2022-09-09T14:21:22;19.40;99.90
22558;DHT22;11445;53.816;8.902;2022-09-09T14:23:50;19.30;99.90
22558;DHT22;11445;53.816;8.902;2022-09-09T14:26:18;19.20;99.90
22558;DHT22;11445;53.816;8.902;2022-09-09T14:28:48;19.10;99.90
22558;DHT22;11445;53.816;8.902;2022-09-09T14:31:16;19.00;99.90
22558;DHT22;11445;53.816;8.902;2022-09-09T14:33:45;19.00;99.90
22558;DHT22;11445;53.816;8.902;2022-09-09T14:36:13;18.90;99.90
22558;DHT22;11445;53.816;8.902;2022-09-09T14:38:40;18.80;99.90
22558;DHT22;11445;53.816;8.902;2022-09-09T14:41:09;18.70;99.90
22558;DHT22;11445;53.816;8.902;2022-09-09T14:43:37;18.50;99.90
22558;DHT22;11445;53.816;8.902;2022-09-09T14:46:07;18.20;99.90
22558;DHT22;11445;53.816;8.902;2022-09-09T14:48:34;18.00;99.90
22558;DHT22;11445;53.816;8.902;2022-09-09T14:51:11;17.60;99.90
22558;DHT22;11445;53.816;8.902;2022-09-09T14:53:39;17.50;99.90
22558;DHT22;11445;53.816;8.902;2022-09-09T14:56:08;17.40;99.90
22558;DHT22;11445;53.816;8.902;2022-09-09T14:58:36;17.40;99.90
22558;DHT22;11445;53.816;8.902;2022-09-09T15:01:06;17.20;99.90
22558;DHT22;11445;53.816;8.902;2022-09-09T15:03:35;17.10;99.90
22558;DHT22;11445;53.816;8.902;2022-09-09T15:06:06;17.10;99.90
22558;DHT22;11445;53.816;8.902;2022-09-09T15:08:35;17.00;99.90
22558;DHT22;11445;53.816;8.902;2022-09-09T15:11:03;17.00;99.90
22558;DHT22;11445;53.816;8.902;2022-09-09T15:13:30;17.00;99.90
22558;DHT22;11445;53.816;8.902;2022-09-09T15:16:03;17.10;99.90
22558;DHT22;11445;53.816;8.902;2022-09-09T15:18:32;17.00;99.90
22558;DHT22;11445;53.816;8.902;2022-09-09T15:21:02;17.00;99.90
22558;DHT22;11445;53.816;8.902;2022-09-09T15:23:31;17.00;99.90
22558;DHT22;11445;53.816;8.902;2022-09-09T15:25:58;17.00;99.90
22558;DHT22;11445;53.816;8.902;2022-09-09T15:28:25;17.00;99.90
22558;DHT22;11445;53.816;8.902;2022-09-09T15:30:53;17.00;99.90
22558;DHT22;11445;53.816;8.902;2022-09-09T15:33:22;17.10;99.90
22558;DHT22;11445;53.816;8.902;2022-09-09T15:35:51;17.20;99.90
22558;DHT22;11445;53.816;8.902;2022-09-09T15:38:18;17.20;99.90
22558;DHT22;11445;53.816;8.902;2022-09-09T15:40:45;17.20;99.90
22558;DHT22;11445;53.816;8.902;2022-09-09T15:43:19;17.20;99.90
22558;DHT22;11445;53.816;8.902;2022-09-09T15:45:53;17.30;99.90
22558;DHT22;11445;53.816;8.902;2022-09-09T15:48:30;17.40;99.90
22558;DHT22;11445;53.816;8.902;2022-09-09T15:51:03;17.50;99.90
22558;DHT22;11445;53.816;8.902;2022-09-09T15:53:30;17.60;99.90
22558;DHT22;11445;53.816;8.902;2022-09-09T15:55:58;17.80;99.90
22558;DHT22;11445;53.816;8.902;2022-09-09T15:58:25;17.90;99.90